Orange Park, Florida
Current Conditions -  °F | °C
As of 10:53 AM on Thursday 27 Nov 2014 (Local Time) from KNIP Reporting Station
Clear Clear  
Wind Chill: 61°   Ceiling: Unl
Heat Index: 61°   Visibility: 10mi
Dew Point: 35°   Wind: 15mph
Humidity: 38%   Direction: 310°NW
Pressure: 30.27"   Gusts: NA
Location:  30.17°N, 81.7°W
Report Text: KNIP 271553Z AUTO 31013KT 10SM CLR 16/02 A3027 RMK AO2 SLP246 T01610017 $
Loading
Personal Weather Stations






























Interactive Weather Map New forecast layout! Learn more

10-Day Weather Forecast

Advertisements
Track Severe Weather on mobile